Time;durP1;ratioP1;P1;durP2;ratioP2;P2;SDS_P1;SDS_P2;PMS_P1;PMS_P2;Temp;Humidity;BMP_temperature;BMP_pressure;BME280_temperature;BME280_humidity;BME280_pressure;Samples;Min_cycle;Max_cycle;Signal;HPM_P1;HPM_P2
2023/09/10 00:01:15;;;;;;;32.27;29.57;;;18.70;99.90;;;;;;5071400;28;20450;-88
2023/09/10 00:03:46;;;;;;;32.77;30.17;;;18.70;99.90;;;;;;5067430;28;20719;-89
2023/09/10 00:06:21;;;;;;;32.30;29.70;;;18.70;99.90;;;;;;5068451;28;20548;-90
2023/09/10 00:08:52;;;;;;;32.90;30.20;;;18.70;99.90;;;;;;5068468;28;20520;-90
2023/09/10 00:11:28;;;;;;;32.00;28.87;;;18.70;99.90;;;;;;5063111;28;20474;-91
2023/09/10 00:13:59;;;;;;;30.70;28.10;;;18.70;99.90;;;;;;5068268;28;20623;-90
2023/09/10 00:16:28;;;;;;;30.67;27.90;;;18.70;99.90;;;;;;5066146;28;20478;-90
2023/09/10 00:19:00;;;;;;;30.93;28.47;;;18.70;99.90;;;;;;5063920;28;20514;-90
2023/09/10 00:21:35;;;;;;;29.27;26.87;;;18.70;99.90;;;;;;5065255;28;20469;-90
2023/09/10 00:24:18;;;;;;;29.07;26.80;;;18.70;99.90;;;;;;5064133;28;20489;-90
2023/09/10 00:26:49;;;;;;;29.70;27.30;;;18.70;99.90;;;;;;5062621;28;20501;-90
2023/09/10 00:29:24;;;;;;;30.27;27.77;;;18.70;99.90;;;;;;5067004;28;20459;-90
2023/09/10 00:31:57;;;;;;;28.20;25.90;;;18.70;99.90;;;;;;5069216;28;20446;-90
2023/09/10 00:34:33;;;;;;;30.13;27.73;;;18.70;99.90;;;;;;5066116;28;20478;-92
2023/09/10 00:37:05;;;;;;;29.23;26.80;;;18.60;99.90;;;;;;5067642;28;20517;-89
2023/09/10 00:39:45;;;;;;;29.50;27.00;;;18.60;99.90;;;;;;5067317;28;20542;-90
2023/09/10 00:42:18;;;;;;;30.07;27.47;;;18.60;99.90;;;;;;5069703;28;20475;-91
2023/09/10 00:44:47;;;;;;;31.10;28.30;;;18.60;99.90;;;;;;5064915;28;20640;-90
2023/09/10 00:47:16;;;;;;;30.67;28.07;;;18.60;99.90;;;;;;5062699;28;20524;-91
2023/09/10 00:49:46;;;;;;;31.47;28.93;;;18.60;99.90;;;;;;5066923;28;20454;-91
2023/09/10 00:52:18;;;;;;;31.77;29.17;;;18.60;99.90;;;;;;5065994;28;20467;-90
2023/09/10 00:54:47;;;;;;;30.83;28.33;;;18.60;99.90;;;;;;5054712;28;20616;-91
2023/09/10 00:57:21;;;;;;;31.43;28.73;;;18.60;99.90;;;;;;5065029;28;20516;-89
2023/09/10 00:59:50;;;;;;;31.90;29.30;;;18.60;99.90;;;;;;5064003;28;20473;-89
2023/09/10 01:02:21;;;;;;;30.53;27.93;;;18.60;99.90;;;;;;5060023;28;20624;-91
2023/09/10 01:04:51;;;;;;;30.47;28.00;;;18.50;99.90;;;;;;5061006;28;20489;-90
2023/09/10 01:07:20;;;;;;;31.70;29.07;;;18.50;99.90;;;;;;5061523;28;20525;-90
2023/09/10 01:09:49;;;;;;;31.37;28.77;;;18.50;99.90;;;;;;5066385;28;20660;-91
2023/09/10 01:12:24;;;;;;;30.70;28.00;;;18.50;99.90;;;;;;5068136;28;20450;-89
2023/09/10 01:15:06;;;;;;;33.00;30.23;;;18.50;99.90;;;;;;5065708;28;20477;-89
2023/09/10 01:17:44;;;;;;;33.43;30.53;;;18.50;99.90;;;;;;5068030;28;20486;-89
2023/09/10 01:20:45;;;;;;;29.67;27.27;;;18.40;99.90;;;;;;5066812;28;20451;-90
2023/09/10 01:23:26;;;;;;;30.90;27.87;;;18.40;99.90;;;;;;5057068;28;20458;-89
2023/09/10 01:25:56;;;;;;;32.60;29.83;;;18.40;99.90;;;;;;5066327;28;20570;-90
2023/09/10 01:28:28;;;;;;;33.20;30.30;;;18.40;99.90;;;;;;5067294;28;20479;-89
2023/09/10 01:30:58;;;;;;;32.07;29.37;;;18.30;99.90;;;;;;5067671;28;20457;-91
2023/09/10 01:33:34;;;;;;;32.23;29.50;;;18.30;99.90;;;;;;5066414;28;20505;-89
2023/09/10 01:36:09;;;;;;;31.07;28.27;;;18.30;99.90;;;;;;5067957;28;20568;-91
2023/09/10 01:38:48;;;;;;;35.90;32.70;;;18.30;99.90;;;;;;5064535;28;20470;-91
2023/09/10 01:41:22;;;;;;;34.87;31.70;;;18.30;99.90;;;;;;5067376;28;20447;-89
2023/09/10 01:43:54;;;;;;;34.83;31.73;;;18.30;99.90;;;;;;5068164;28;20489;-90
2023/09/10 01:46:25;;;;;;;36.60;33.40;;;18.30;99.90;;;;;;5067798;28;20545;-90
2023/09/10 01:48:56;;;;;;;37.37;34.10;;;18.30;99.90;;;;;;5068441;28;20521;-90
2023/09/10 01:51:29;;;;;;;35.73;32.63;;;18.30;99.90;;;;;;5070811;28;20478;-90
2023/09/10 01:54:00;;;;;;;37.33;34.03;;;18.30;99.90;;;;;;5066230;28;20493;-89
2023/09/10 01:56:33;;;;;;;36.23;32.90;;;18.30;99.90;;;;;;5069239;28;20525;-90
2023/09/10 01:59:01;;;;;;;36.03;32.43;;;18.30;99.90;;;;;;5066505;28;20458;-91
2023/09/10 02:01:31;;;;;;;35.93;32.73;;;18.30;99.90;;;;;;5064874;28;20461;-91
2023/09/10 02:04:00;;;;;;;35.87;32.37;;;18.30;99.90;;;;;;5064345;28;20504;-92
2023/09/10 02:06:28;;;;;;;34.03;30.97;;;18.30;99.90;;;;;;5069718;28;20486;-90
2023/09/10 02:09:00;;;;;;;36.77;33.47;;;18.20;99.90;;;;;;5063337;28;20471;-89
2023/09/10 02:11:31;;;;;;;37.00;33.67;;;18.20;99.90;;;;;;5065461;28;20520;-90
2023/09/10 02:13:59;;;;;;;39.63;36.03;;;18.20;99.90;;;;;;5064803;28;20494;-92
2023/09/10 02:16:29;;;;;;;37.13;33.87;;;18.10;99.90;;;;;;5069879;28;20475;-88
2023/09/10 02:19:02;;;;;;;38.43;34.67;;;18.10;99.90;;;;;;5066621;28;20526;-90
2023/09/10 02:21:32;;;;;;;38.87;35.50;;;18.10;99.90;;;;;;5062399;28;20447;-91
2023/09/10 02:24:02;;;;;;;38.30;34.97;;;18.10;99.90;;;;;;5064926;28;20482;-90
2023/09/10 02:26:32;;;;;;;39.07;35.67;;;18.10;99.90;;;;;;5063410;28;20618;-91
2023/09/10 02:29:00;;;;;;;39.80;36.40;;;18.00;99.90;;;;;;5066560;28;20485;-89
2023/09/10 02:31:28;;;;;;;40.20;36.50;;;18.00;99.90;;;;;;5066088;28;20481;-90
2023/09/10 02:34:00;;;;;;;39.33;35.67;;;18.00;99.90;;;;;;5068645;28;20474;-88
2023/09/10 02:36:29;;;;;;;39.63;36.10;;;18.00;99.90;;;;;;5065116;28;20477;-88
2023/09/10 02:38:57;;;;;;;38.10;34.70;;;17.90;99.90;;;;;;5070926;28;20447;-91
2023/09/10 02:41:25;;;;;;;39.30;35.73;;;17.90;99.90;;;;;;5066367;28;20454;-91
2023/09/10 02:43:55;;;;;;;36.63;33.33;;;17.90;99.90;;;;;;5071463;28;20494;-92
2023/09/10 02:46:25;;;;;;;38.70;35.30;;;17.90;99.90;;;;;;5066318;28;20548;-91
2023/09/10 02:48:53;;;;;;;37.63;34.13;;;17.80;99.90;;;;;;5067843;28;20510;-92
2023/09/10 02:51:21;;;;;;;37.07;33.83;;;17.80;99.90;;;;;;5071884;28;20454;-90
2023/09/10 02:53:49;;;;;;;38.07;34.67;;;17.80;99.90;;;;;;5066582;28;20539;-92
2023/09/10 02:56:17;;;;;;;38.83;35.43;;;17.80;99.90;;;;;;5064325;28;20502;-91
2023/09/10 02:58:46;;;;;;;40.20;36.40;;;17.80;99.90;;;;;;5069319;28;20463;-91
2023/09/10 03:01:16;;;;;;;39.07;35.57;;;17.70;99.90;;;;;;5068367;28;20519;-91
2023/09/10 03:03:44;;;;;;;37.83;34.53;;;17.70;99.90;;;;;;5065862;28;20511;-91
2023/09/10 03:06:13;;;;;;;41.77;37.93;;;17.70;99.90;;;;;;5067507;28;20584;-92
2023/09/10 03:08:42;;;;;;;39.77;36.10;;;17.70;99.90;;;;;;5064049;28;20478;-92
2023/09/10 03:11:11;;;;;;;39.83;36.30;;;17.70;99.90;;;;;;5067291;28;20488;-91
2023/09/10 03:13:39;;;;;;;39.10;35.50;;;17.70;99.90;;;;;;5070302;28;20487;-92
2023/09/10 03:16:07;;;;;;;39.30;35.60;;;17.60;99.90;;;;;;5061658;23;20517;-91
2023/09/10 03:18:37;;;;;;;40.83;37.00;;;17.60;99.90;;;;;;5057914;28;20459;-91
2023/09/10 03:21:06;;;;;;;41.90;38.13;;;17.60;99.90;;;;;;5062327;28;20467;-92
2023/09/10 03:23:34;;;;;;;40.50;36.67;;;17.60;99.90;;;;;;5064102;28;20489;-91
2023/09/10 03:26:02;;;;;;;43.53;39.53;;;17.60;99.90;;;;;;5064704;28;20475;-92
2023/09/10 03:28:30;;;;;;;46.33;41.83;;;17.50;99.90;;;;;;5060741;28;20490;-92
2023/09/10 03:30:59;;;;;;;44.20;39.93;;;17.50;99.90;;;;;;5061433;28;20455;-91
2023/09/10 03:33:27;;;;;;;42.60;38.70;;;17.50;99.90;;;;;;5058979;28;20451;-93
2023/09/10 03:35:57;;;;;;;43.80;39.80;;;17.50;99.90;;;;;;5058869;28;20557;-92
2023/09/10 03:38:26;;;;;;;45.67;41.33;;;17.50;99.90;;;;;;5061994;28;20489;-93
2023/09/10 03:40:54;;;;;;;43.33;39.37;;;17.40;99.90;;;;;;5060712;28;21056;-91
2023/09/10 03:43:23;;;;;;;44.03;39.87;;;17.40;99.90;;;;;;5062388;28;20478;-91
2023/09/10 03:45:52;;;;;;;45.23;40.90;;;17.40;99.90;;;;;;5058692;28;20483;-92
2023/09/10 03:48:20;;;;;;;49.33;44.63;;;17.40;99.90;;;;;;5062668;28;20446;-92
2023/09/10 03:50:48;;;;;;;50.83;45.60;;;17.40;99.90;;;;;;5063347;28;20452;-89
2023/09/10 03:53:18;;;;;;;57.27;51.43;;;17.40;99.90;;;;;;5062940;28;20455;-91
2023/09/10 03:55:46;;;;;;;55.77;50.03;;;17.40;99.90;;;;;;5062667;28;20509;-93
2023/09/10 03:58:15;;;;;;;56.03;50.47;;;17.40;99.90;;;;;;5062053;28;20767;-90
2023/09/10 04:00:44;;;;;;;69.90;62.07;;;17.40;99.90;;;;;;5060552;28;20458;-92
2023/09/10 04:03:12;;;;;;;84.20;69.43;;;17.40;99.90;;;;;;5061441;28;20527;-93
2023/09/10 04:05:40;;;;;;;71.37;63.27;;;17.40;99.90;;;;;;5059485;28;20495;-91
2023/09/10 04:08:09;;;;;;;81.77;69.20;;;17.50;99.90;;;;;;5059175;28;20447;-92
2023/09/10 04:10:38;;;;;;;90.00;75.07;;;17.50;99.90;;;;;;5059515;28;20475;-92
2023/09/10 04:13:07;;;;;;;82.07;69.13;;;17.60;99.90;;;;;;5057241;28;20573;-91
2023/09/10 04:15:35;;;;;;;92.50;75.67;;;17.60;99.90;;;;;;5056567;28;20545;-90
2023/09/10 04:18:05;;;;;;;90.97;76.73;;;17.60;99.90;;;;;;5061254;28;20570;-90
2023/09/10 04:20:34;;;;;;;82.80;71.43;;;17.70;99.90;;;;;;5061544;28;20474;-92
2023/09/10 04:23:02;;;;;;;83.17;74.03;;;17.70;99.90;;;;;;5061296;28;20439;-90
2023/09/10 04:25:31;;;;;;;82.27;70.50;;;17.70;99.90;;;;;;5057388;28;20491;-91
2023/09/10 04:28:01;;;;;;;81.13;72.37;;;17.60;99.90;;;;;;5058517;28;20450;-91
2023/09/10 04:30:31;;;;;;;77.90;69.30;;;17.60;99.90;;;;;;5055756;28;20517;-91
2023/09/10 04:32:59;;;;;;;72.07;63.73;;;17.60;99.90;;;;;;5058085;28;20459;-90
2023/09/10 04:35:27;;;;;;;80.27;64.07;;;17.70;99.90;;;;;;5059539;28;20490;-90
2023/09/10 04:37:56;;;;;;;71.07;63.33;;;17.60;99.90;;;;;;5060653;28;20451;-93
2023/09/10 04:40:24;;;;;;;65.23;58.53;;;17.50;99.90;;;;;;5060986;28;20683;-91
2023/09/10 04:42:53;;;;;;;70.90;63.20;;;17.50;99.90;;;;;;5061702;28;20494;-91
2023/09/10 04:45:22;;;;;;;69.30;62.03;;;17.50;99.90;;;;;;5062168;28;20471;-90
2023/09/10 04:47:50;;;;;;;63.80;57.00;;;17.40;99.90;;;;;;5058453;28;20505;-91
2023/09/10 04:50:19;;;;;;;65.30;58.40;;;17.50;99.90;;;;;;5061795;28;20548;-90
2023/09/10 04:52:47;;;;;;;63.60;56.70;;;17.50;99.90;;;;;;5063706;28;20478;-90
2023/09/10 04:55:15;;;;;;;62.50;55.97;;;17.50;99.90;;;;;;5061385;28;20537;-92
2023/09/10 04:57:44;;;;;;;60.97;54.77;;;17.50;99.90;;;;;;5060761;28;20463;-90
2023/09/10 05:00:13;;;;;;;68.43;55.73;;;17.50;99.90;;;;;;5059926;28;20470;-92
2023/09/10 05:02:42;;;;;;;61.87;55.27;;;17.50;99.90;;;;;;5061198;28;20562;-91
2023/09/10 05:05:15;;;;;;;62.27;55.57;;;17.50;99.90;;;;;;5059781;28;20489;-90
2023/09/10 05:07:43;;;;;;;62.70;55.70;;;17.50;99.90;;;;;;5058972;28;20443;-91
2023/09/10 05:10:12;;;;;;;60.67;54.27;;;17.50;99.90;;;;;;5064077;28;20498;-90
2023/09/10 05:12:40;;;;;;;61.83;54.23;;;17.40;99.90;;;;;;5061141;28;20455;-90
2023/09/10 05:15:10;;;;;;;54.50;49.00;;;17.40;99.90;;;;;;5059135;28;20490;-90
2023/09/10 05:17:38;;;;;;;66.40;55.07;;;17.40;99.90;;;;;;5063299;28;20451;-92
2023/09/10 05:20:10;;;;;;;62.43;54.93;;;17.40;99.90;;;;;;5060430;28;20537;-90
2023/09/10 05:22:38;;;;;;;61.60;54.67;;;17.30;99.90;;;;;;5059300;28;20518;-91
2023/09/10 05:25:07;;;;;;;59.53;52.87;;;17.40;99.90;;;;;;5058685;28;20471;-91
2023/09/10 05:27:35;;;;;;;62.07;52.57;;;17.40;99.90;;;;;;5058249;28;20474;-91
2023/09/10 05:30:04;;;;;;;62.00;51.70;;;17.40;99.90;;;;;;5055681;28;20495;-91
2023/09/10 05:32:33;;;;;;;58.90;50.80;;;17.40;99.90;;;;;;5059405;28;20505;-93
2023/09/10 05:35:01;;;;;;;75.93;51.40;;;17.50;99.90;;;;;;5057954;28;20671;-92
2023/09/10 05:37:31;;;;;;;63.83;52.00;;;17.50;99.90;;;;;;5057603;28;20455;-91
2023/09/10 05:39:59;;;;;;;62.77;52.13;;;17.50;99.90;;;;;;5058628;28;20523;-90
2023/09/10 05:42:37;;;;;;;57.27;49.50;;;17.50;99.90;;;;;;5057729;28;20456;-91
2023/09/10 05:45:07;;;;;;;58.27;49.10;;;17.50;99.90;;;;;;5044405;22;20499;-67
2023/09/10 05:47:35;;;;;;;55.53;45.97;;;17.60;99.90;;;;;;5016057;28;21317;-67
2023/09/10 05:50:03;;;;;;;56.40;45.17;;;17.60;99.90;;;;;;5021240;28;20552;-67
2023/09/10 05:52:32;;;;;;;68.10;48.87;;;17.60;99.90;;;;;;5022063;28;21007;-67
2023/09/10 05:55:00;;;;;;;63.10;48.03;;;17.70;99.90;;;;;;5024315;28;20502;-67
2023/09/10 05:57:28;;;;;;;60.80;46.20;;;17.70;99.90;;;;;;5017722;28;20495;-66
2023/09/10 05:59:56;;;;;;;64.53;47.57;;;17.70;99.90;;;;;;5022311;28;20764;-67
2023/09/10 06:02:25;;;;;;;65.13;47.40;;;17.70;99.90;;;;;;5008610;28;20502;-67
2023/09/10 06:04:53;;;;;;;60.40;45.80;;;17.80;99.90;;;;;;5010881;28;20489;-67
2023/09/10 06:07:22;;;;;;;60.37;45.17;;;17.70;99.90;;;;;;5020073;28;20512;-67
2023/09/10 06:09:51;;;;;;;65.17;45.13;;;17.70;99.90;;;;;;5017828;28;20606;-67
2023/09/10 06:12:19;;;;;;;61.87;45.37;;;17.70;99.90;;;;;;5017734;28;20499;-67
2023/09/10 06:14:47;;;;;;;65.27;45.97;;;17.70;99.90;;;;;;5006138;28;21283;-67
2023/09/10 06:17:15;;;;;;;56.00;41.97;;;17.70;99.90;;;;;;5013860;28;20605;-67
2023/09/10 06:19:43;;;;;;;60.03;42.80;;;17.70;99.90;;;;;;5006300;28;20517;-67
2023/09/10 06:22:11;;;;;;;54.97;41.20;;;17.80;99.90;;;;;;5020431;28;20471;-66
2023/09/10 06:24:39;;;;;;;57.10;42.90;;;17.80;99.90;;;;;;5021859;28;20474;-67
2023/09/10 06:27:09;;;;;;;56.70;41.90;;;17.80;99.90;;;;;;5016288;28;20522;-66
2023/09/10 06:29:37;;;;;;;52.43;40.63;;;17.80;99.90;;;;;;5015208;28;20495;-66
2023/09/10 06:32:05;;;;;;;56.77;43.60;;;17.80;99.90;;;;;;5015136;28;20563;-67
2023/09/10 06:34:34;;;;;;;52.53;40.63;;;17.80;99.90;;;;;;5017343;28;20574;-66
2023/09/10 06:37:02;;;;;;;55.63;40.80;;;17.80;99.90;;;;;;5018119;28;20877;-67
2023/09/10 06:39:30;;;;;;;53.73;38.60;;;17.80;99.90;;;;;;5017675;28;20487;-66
2023/09/10 06:41:58;;;;;;;52.37;40.70;;;17.80;99.90;;;;;;5015813;28;20505;-67
2023/09/10 06:44:27;;;;;;;52.57;39.37;;;17.80;99.90;;;;;;5009428;28;20479;-67
2023/09/10 06:46:55;;;;;;;51.87;39.03;;;17.80;99.90;;;;;;5010313;28;20594;-66
2023/09/10 06:49:23;;;;;;;53.83;41.07;;;17.80;99.90;;;;;;5008264;28;20997;-66
2023/09/10 06:51:51;;;;;;;52.57;38.63;;;17.70;99.90;;;;;;5018630;28;20555;-66
2023/09/10 06:54:19;;;;;;;56.27;40.70;;;17.80;99.90;;;;;;5015891;28;20584;-66
2023/09/10 06:56:48;;;;;;;55.37;40.57;;;17.80;99.90;;;;;;5012011;28;20635;-66
2023/09/10 06:59:16;;;;;;;58.33;43.00;;;17.80;99.90;;;;;;5011493;28;20475;-67
2023/09/10 07:01:45;;;;;;;50.93;38.70;;;17.80;99.90;;;;;;5015046;28;21011;-67
2023/09/10 07:04:17;;;;;;;53.23;41.33;;;17.80;99.90;;;;;;4990539;28;20611;-66
2023/09/10 07:06:46;;;;;;;50.83;37.67;;;17.80;99.90;;;;;;5008645;28;20960;-66
2023/09/10 07:09:15;;;;;;;54.93;40.73;;;17.80;99.90;;;;;;5013722;28;20546;-66
2023/09/10 07:11:43;;;;;;;56.53;40.83;;;17.90;99.90;;;;;;5013888;28;20565;-66
2023/09/10 07:14:11;;;;;;;55.87;39.73;;;17.90;99.90;;;;;;5004819;28;20542;-66
2023/09/10 07:16:39;;;;;;;55.50;40.83;;;17.90;99.90;;;;;;5012246;28;20870;-66
2023/09/10 07:19:08;;;;;;;52.27;39.50;;;18.00;99.90;;;;;;5013149;28;20567;-67
2023/09/10 07:21:36;;;;;;;53.17;40.33;;;18.00;99.90;;;;;;5011206;28;20565;-67
2023/09/10 07:24:06;;;;;;;51.30;40.40;;;18.00;99.90;;;;;;5012599;28;20475;-66
2023/09/10 07:26:35;;;;;;;56.67;40.43;;;18.00;99.90;;;;;;5018300;28;24175;-65
2023/09/10 07:29:03;;;;;;;58.07;39.60;;;18.00;99.90;;;;;;5016655;28;20558;-65
2023/09/10 07:31:32;;;;;;;51.80;38.17;;;18.00;99.90;;;;;;5005687;28;20488;-64
2023/09/10 07:34:01;;;;;;;50.27;37.10;;;18.00;99.90;;;;;;5009511;28;20478;-65
2023/09/10 07:36:30;;;;;;;48.90;37.20;;;17.90;99.90;;;;;;5010425;28;20475;-65
2023/09/10 07:38:58;;;;;;;45.43;36.30;;;17.90;99.90;;;;;;5013891;28;20475;-65
2023/09/10 07:41:26;;;;;;;47.90;36.93;;;17.80;99.90;;;;;;5014668;28;20586;-64
2023/09/10 07:43:54;;;;;;;46.00;35.77;;;17.80;99.90;;;;;;5011473;28;20474;-65
2023/09/10 07:46:24;;;;;;;46.00;34.97;;;17.80;99.90;;;;;;4973068;28;1140029;-64
2023/09/10 07:48:52;;;;;;;50.47;37.63;;;17.80;99.90;;;;;;5015610;28;20319;-64
2023/09/10 07:51:20;;;;;;;48.07;36.53;;;17.80;99.90;;;;;;5016433;28;20774;-65
2023/09/10 07:53:49;;;;;;;46.50;36.80;;;17.90;99.90;;;;;;5009376;28;20561;-65
2023/09/10 07:56:17;;;;;;;43.57;34.53;;;17.90;99.90;;;;;;5011653;28;20507;-65
2023/09/10 07:58:45;;;;;;;50.80;38.53;;;17.90;99.90;;;;;;5013875;28;20496;-66
2023/09/10 08:01:13;;;;;;;47.13;36.20;;;17.90;99.90;;;;;;5019334;28;20912;-65
2023/09/10 08:03:42;;;;;;;50.13;38.00;;;17.90;99.90;;;;;;5009038;28;20471;-65
2023/09/10 08:06:10;;;;;;;46.70;37.53;;;18.00;99.90;;;;;;5011473;28;20960;-65
2023/09/10 08:08:39;;;;;;;47.00;36.90;;;17.90;99.90;;;;;;5017185;28;20494;-65
2023/09/10 08:11:09;;;;;;;49.27;38.27;;;18.00;99.90;;;;;;5013559;28;21066;-65
2023/09/10 08:13:37;;;;;;;47.57;37.83;;;18.00;99.90;;;;;;5009691;28;20467;-64
2023/09/10 08:16:05;;;;;;;46.77;37.03;;;18.00;99.90;;;;;;5014769;28;20475;-64
2023/09/10 08:18:33;;;;;;;45.33;34.73;;;18.00;99.90;;;;;;5020528;28;20523;-63
2023/09/10 08:21:01;;;;;;;45.13;36.90;;;18.10;99.90;;;;;;5017956;28;20598;-63
2023/09/10 08:23:29;;;;;;;48.60;38.00;;;18.10;99.90;;;;;;5020782;28;20640;-65
2023/09/10 08:25:57;;;;;;;51.80;39.43;;;18.20;99.90;;;;;;5020799;28;20495;-65
2023/09/10 08:28:27;;;;;;;49.50;38.37;;;18.20;99.90;;;;;;5020109;28;21080;-64
2023/09/10 08:30:55;;;;;;;48.10;37.17;;;18.20;99.90;;;;;;5020137;28;20564;-67
2023/09/10 08:33:24;;;;;;;51.83;38.80;;;18.30;99.90;;;;;;5019242;28;20491;-64
2023/09/10 08:35:54;;;;;;;50.17;38.10;;;18.20;99.90;;;;;;5007001;28;20482;-63
2023/09/10 08:38:23;;;;;;;51.40;37.67;;;18.20;99.90;;;;;;5003718;28;20487;-64
2023/09/10 08:41:03;;;;;;;53.57;39.13;;;18.30;99.90;;;;;;5010705;28;21036;-70
2023/09/10 08:43:40;;;;;;;51.63;37.67;;;18.30;99.90;;;;;;5008160;28;20627;-70
2023/09/10 08:46:10;;;;;;;49.27;37.17;;;18.30;99.90;;;;;;4999732;28;20575;-71
2023/09/10 08:48:41;;;;;;;47.93;37.80;;;18.30;99.90;;;;;;5000665;28;20503;-74
2023/09/10 08:51:09;;;;;;;43.50;35.17;;;18.30;99.90;;;;;;5002195;28;21201;-70
2023/09/10 08:53:39;;;;;;;47.50;36.80;;;18.30;99.90;;;;;;5009667;28;20568;-70
2023/09/10 08:56:08;;;;;;;45.97;35.53;;;18.30;99.90;;;;;;5009298;28;20482;-68
2023/09/10 08:58:38;;;;;;;44.37;33.73;;;18.30;99.90;;;;;;5006081;28;20496;-70
2023/09/10 09:01:08;;;;;;;40.93;33.43;;;18.40;99.90;;;;;;5004139;28;20468;-69
2023/09/10 09:03:37;;;;;;;44.63;33.83;;;18.40;99.90;;;;;;5008601;28;20514;-70
2023/09/10 09:06:06;;;;;;;42.53;33.20;;;18.50;99.90;;;;;;5013109;28;20590;-70
2023/09/10 09:08:36;;;;;;;40.43;32.03;;;18.60;99.90;;;;;;5010063;28;20495;-70
2023/09/10 09:11:06;;;;;;;39.77;32.33;;;18.70;99.90;;;;;;5014306;28;20566;-71
2023/09/10 09:13:38;;;;;;;36.13;30.40;;;18.70;99.90;;;;;;5003125;28;20621;-72
2023/09/10 09:16:07;;;;;;;37.60;31.53;;;18.70;99.90;;;;;;4999016;28;20578;-70
2023/09/10 09:18:36;;;;;;;39.07;30.27;;;18.90;99.90;;;;;;5004292;28;20502;-71
2023/09/10 09:21:10;;;;;;;35.53;29.00;;;19.00;99.90;;;;;;4999940;28;20475;-69
2023/09/10 09:23:45;;;;;;;40.37;31.10;;;19.20;99.90;;;;;;5009570;28;21063;-72
2023/09/10 09:26:14;;;;;;;34.47;28.60;;;19.30;99.90;;;;;;5013136;28;20603;-73
2023/09/10 09:28:44;;;;;;;34.10;29.87;;;19.30;99.90;;;;;;5001537;28;20491;-73
2023/09/10 09:31:12;;;;;;;38.37;30.77;;;19.40;99.90;;;;;;5012211;28;20475;-72
2023/09/10 09:33:40;;;;;;;37.57;30.10;;;19.50;99.90;;;;;;5011462;28;20463;-73
2023/09/10 09:36:09;;;;;;;37.10;29.67;;;19.60;99.90;;;;;;5006194;28;21016;-70
2023/09/10 09:38:43;;;;;;;35.37;29.57;;;19.70;99.90;;;;;;5001041;28;20903;-74
2023/09/10 09:41:12;;;;;;;42.70;32.93;;;19.80;99.90;;;;;;5006699;28;20467;-72
2023/09/10 09:43:40;;;;;;;37.13;30.00;;;19.80;99.90;;;;;;5011331;28;20548;-74
2023/09/10 09:46:09;;;;;;;31.73;26.73;;;19.80;99.90;;;;;;5004199;28;20502;-72
2023/09/10 09:48:38;;;;;;;35.97;28.83;;;19.90;99.90;;;;;;5014147;28;20523;-73
2023/09/10 09:51:08;;;;;;;33.90;28.77;;;20.00;99.90;;;;;;5006435;28;21108;-72
2023/09/10 09:53:37;;;;;;;35.10;29.17;;;20.10;99.90;;;;;;5011743;28;20475;-72
2023/09/10 09:56:07;;;;;;;36.70;31.60;;;20.20;99.90;;;;;;5015881;28;20902;-72
2023/09/10 09:58:35;;;;;;;29.97;26.70;;;20.30;99.90;;;;;;5010187;28;20497;-72
2023/09/10 10:01:03;;;;;;;34.37;30.57;;;20.40;99.90;;;;;;5006479;28;20931;-70
2023/09/10 10:03:34;;;;;;;34.43;29.87;;;20.50;99.90;;;;;;5008082;28;20523;-70
2023/09/10 10:06:02;;;;;;;33.67;29.97;;;20.60;99.90;;;;;;5015171;28;20504;-71
2023/09/10 10:08:32;;;;;;;36.20;29.03;;;20.70;99.90;;;;;;5012511;28;20535;-71
2023/09/10 10:11:01;;;;;;;32.70;28.87;;;20.80;99.90;;;;;;5010534;28;20474;-67
2023/09/10 10:13:29;;;;;;;34.00;30.40;;;20.90;99.90;;;;;;5007152;28;20467;-68
2023/09/10 10:15:57;;;;;;;31.80;28.30;;;21.00;99.90;;;;;;5013171;28;20578;-68
2023/09/10 10:18:27;;;;;;;35.73;31.87;;;21.10;99.90;;;;;;5010630;28;20495;-68
2023/09/10 10:21:00;;;;;;;36.33;30.20;;;21.20;99.90;;;;;;5011512;28;20477;-68
2023/09/10 10:23:29;;;;;;;31.77;28.37;;;21.30;99.90;;;;;;5011833;28;20501;-68
2023/09/10 10:25:58;;;;;;;30.93;27.53;;;21.40;99.90;;;;;;5013744;28;20475;-67
2023/09/10 10:28:27;;;;;;;33.10;29.70;;;21.40;99.90;;;;;;5012654;28;20491;-68
2023/09/10 10:31:03;;;;;;;30.83;27.70;;;21.50;99.90;;;;;;5012038;28;21035;-68
2023/09/10 10:33:34;;;;;;;32.83;29.27;;;21.60;99.90;;;;;;5012803;28;21742;-68
2023/09/10 10:36:09;;;;;;;32.43;29.07;;;21.70;99.90;;;;;;5014337;28;20483;-68
2023/09/10 10:38:44;;;;;;;30.57;27.37;;;21.80;99.90;;;;;;5008155;28;20594;-68
2023/09/10 10:41:17;;;;;;;30.23;27.07;;;21.80;99.90;;;;;;5006783;28;20470;-68
2023/09/10 10:43:51;;;;;;;31.27;26.43;;;21.90;99.90;;;;;;5011255;28;20585;-68
2023/09/10 10:46:23;;;;;;;27.83;24.43;;;22.00;99.90;;;;;;4999291;28;20477;-68
2023/09/10 10:48:52;;;;;;;29.30;26.10;;;22.20;99.90;;;;;;5006969;28;20491;-68
2023/09/10 10:51:21;;;;;;;29.00;25.90;;;22.40;99.90;;;;;;5007158;28;20578;-68
2023/09/10 10:53:49;;;;;;;32.40;29.10;;;22.50;99.90;;;;;;5010724;28;20467;-68
2023/09/10 10:56:18;;;;;;;31.87;28.77;;;22.60;99.90;;;;;;5025485;28;20926;-66
2023/09/10 10:58:47;;;;;;;31.27;28.13;;;22.70;99.90;;;;;;5022708;28;21244;-66
2023/09/10 11:01:15;;;;;;;28.87;25.97;;;22.80;99.90;;;;;;5012579;28;20502;-66
2023/09/10 11:03:44;;;;;;;30.40;27.27;;;22.90;99.90;;;;;;5014314;28;20499;-66
2023/09/10 11:06:12;;;;;;;29.63;25.83;;;23.00;99.90;;;;;;5011779;28;20479;-66
2023/09/10 11:08:43;;;;;;;29.00;26.00;;;23.10;99.90;;;;;;5011164;28;21517;-69
2023/09/10 11:11:32;;;;;;;26.67;24.03;;;23.30;99.90;;;;;;5015627;28;21067;-69
2023/09/10 11:14:01;;;;;;;31.23;28.10;;;23.50;99.90;;;;;;5013829;28;20475;-69
2023/09/10 11:16:30;;;;;;;28.70;25.80;;;23.60;99.90;;;;;;5013361;28;21819;-69
2023/09/10 11:18:58;;;;;;;25.83;23.23;;;23.70;99.90;;;;;;5015354;28;21134;-69
2023/09/10 11:22:01;;;;;;;23.67;21.37;;;23.80;99.90;;;;;;5009498;28;20990;-69
2023/09/10 11:24:33;;;;;;;27.30;24.77;;;23.80;99.90;;;;;;5010977;28;20581;-70
2023/09/10 11:27:22;;;;;;;25.20;22.70;;;24.00;99.90;;;;;;5015582;28;20499;-68
2023/09/10 11:30:11;;;;;;;24.30;22.00;;;24.20;99.90;;;;;;5011863;28;20967;-68
2023/09/10 11:32:40;;;;;;;23.77;21.50;;;24.40;99.90;;;;;;5013565;28;20471;-68
2023/09/10 11:35:28;;;;;;;22.33;20.33;;;24.50;99.90;;;;;;5012629;28;20562;-68
2023/09/10 11:37:57;;;;;;;27.87;25.07;;;24.70;99.90;;;;;;5017093;28;20881;-68
2023/09/10 11:40:26;;;;;;;25.00;22.70;;;24.80;99.90;;;;;;5013945;28;20570;-69
2023/09/10 11:42:54;;;;;;;24.40;22.27;;;24.80;99.90;;;;;;5018051;28;20972;-68
2023/09/10 11:45:23;;;;;;;20.93;19.03;;;24.90;99.90;;;;;;5013173;28;20573;-69
2023/09/10 11:47:51;;;;;;;24.70;22.40;;;24.90;99.90;;;;;;5016588;28;20591;-69
2023/09/10 11:50:26;;;;;;;22.37;20.40;;;25.10;99.90;;;;;;5012906;28;20960;-68
2023/09/10 11:52:54;;;;;;;24.80;22.60;;;25.30;99.90;;;;;;5017418;28;20474;-67
2023/09/10 11:55:22;;;;;;;23.17;20.97;;;25.40;99.90;;;;;;5015050;28;20549;-67
2023/09/10 11:57:53;;;;;;;21.97;19.97;;;25.50;99.90;;;;;;5012727;28;20602;-67
2023/09/10 12:00:23;;;;;;;22.73;20.60;;;25.60;99.90;;;;;;5010770;28;20502;-67
2023/09/10 12:02:52;;;;;;;23.30;21.10;;;25.80;99.90;;;;;;4997677;28;20491;-67
2023/09/10 12:05:20;;;;;;;19.83;18.03;;;25.90;99.90;;;;;;4998649;28;20600;-67
2023/09/10 12:07:49;;;;;;;21.53;19.60;;;26.10;99.90;;;;;;5000277;28;20499;-67
2023/09/10 12:10:17;;;;;;;24.10;21.93;;;26.20;99.90;;;;;;4995124;28;20507;-68
2023/09/10 12:12:46;;;;;;;19.93;18.23;;;26.30;99.90;;;;;;4998633;28;20865;-67
2023/09/10 12:15:16;;;;;;;17.40;16.00;;;26.40;99.90;;;;;;5011761;28;20471;-67
2023/09/10 12:17:45;;;;;;;19.13;17.43;;;26.50;99.90;;;;;;5012526;28;20486;-68
2023/09/10 12:20:13;;;;;;;18.73;17.10;;;26.70;99.90;;;;;;5006417;28;20920;-68
2023/09/10 12:22:42;;;;;;;22.73;20.67;;;26.90;99.90;;;;;;5016364;28;20475;-68
2023/09/10 12:25:10;;;;;;;19.97;18.27;;;27.00;99.90;;;;;;5020049;28;20841;-68
2023/09/10 12:27:39;;;;;;;21.80;19.90;;;27.00;99.90;;;;;;5007071;28;20873;-67
2023/09/10 12:30:08;;;;;;;20.23;18.37;;;27.10;99.90;;;;;;5016332;28;20471;-67
2023/09/10 12:32:38;;;;;;;18.80;17.20;;;27.10;99.90;;;;;;5015270;28;20601;-67
2023/09/10 12:35:07;;;;;;;19.30;17.60;;;27.30;99.90;;;;;;5007881;28;20477;-66
2023/09/10 12:37:35;;;;;;;18.60;17.10;;;27.50;99.90;;;;;;5014677;28;20510;-67
2023/09/10 12:40:04;;;;;;;15.77;14.50;;;27.70;99.90;;;;;;5011245;28;20463;-67